Time;durP1;ratioP1;P1;durP2;ratioP2;P2;SDS_P1;SDS_P2;PMS_P1;PMS_P2;Temp;Humidity;BMP_temperature;BMP_pressure;BME280_temperature;BME280_humidity;BME280_pressure;Samples;Min_cycle;Max_cycle;Signal;HPM_P1;HPM_P2
2021/11/07 00:04:14;;;;;;;1.63;0.53;;;;;;;;;;5072230;28;20033;-62
2021/11/07 00:06:51;;;;;;;1.50;0.60;;;;;;;;;;5074676;28;20017;-62
2021/11/07 00:09:32;;;;;;;2.37;0.50;;;;;;;;;;5070997;28;20031;-62
2021/11/07 00:12:00;;;;;;;0.83;0.40;;;;;;;;;;5070158;28;20020;-62
2021/11/07 00:14:28;;;;;;;1.30;0.60;;;;;;;;;;5070862;28;20489;-62
2021/11/07 00:16:56;;;;;;;0.73;0.50;;;;;;;;;;5070619;28;20024;-62
2021/11/07 00:19:35;;;;;;;2.23;0.67;;;;;;;;;;5075883;28;20028;-62
2021/11/07 00:22:20;;;;;;;0.93;0.60;;;;;;;;;;5075568;28;20115;-62
2021/11/07 00:30:00;;;;;;;0.97;0.50;;;;;;;;;;5073694;28;20024;-62
2021/11/07 00:37:36;;;;;;;2.57;0.80;;;;;;;;;;5069948;28;20741;-62
2021/11/07 00:42:51;;;;;;;2.67;0.90;;;;;;;;;;5075689;28;20040;-62
2021/11/07 00:47:56;;;;;;;1.00;0.67;;;;;;;;;;5075242;28;20032;-62
2021/11/07 00:50:27;;;;;;;3.20;0.87;;;;;;;;;;5075173;28;20466;-62
2021/11/07 00:53:12;;;;;;;2.90;1.13;;;;;;;;;;5071644;28;20086;-62
2021/11/07 00:55:48;;;;;;;2.73;0.97;;;;;;;;;;5069498;28;20039;-62
2021/11/07 00:58:19;;;;;;;1.70;0.87;;;;;;;;;;5070079;28;20444;-62
2021/11/07 01:00:59;;;;;;;2.30;0.90;;;;;;;;;;5069704;28;20513;-62
2021/11/07 01:03:26;;;;;;;2.00;0.80;;;;;;;;;;5073978;28;20071;-62
2021/11/07 01:05:53;;;;;;;2.43;1.00;;;;;;;;;;5074610;28;20052;-62
2021/11/07 01:08:20;;;;;;;3.20;0.73;;;;;;;;;;5075224;28;20532;-61
2021/11/07 01:10:47;;;;;;;1.23;0.73;;;;;;;;;;5074934;28;20070;-62
2021/11/07 01:13:14;;;;;;;4.03;1.10;;;;;;;;;;5075151;28;20024;-61
2021/11/07 01:15:41;;;;;;;1.57;1.10;;;;;;;;;;5069864;28;20024;-62
2021/11/07 01:18:07;;;;;;;1.40;0.80;;;;;;;;;;5068779;28;20023;-62
2021/11/07 01:20:35;;;;;;;1.57;0.80;;;;;;;;;;5069178;28;20070;-62
2021/11/07 01:23:13;;;;;;;2.00;0.97;;;;;;;;;;5069048;28;20036;-61
2021/11/07 01:25:46;;;;;;;1.73;0.87;;;;;;;;;;5074083;28;20028;-62
2021/11/07 01:28:14;;;;;;;5.40;0.97;;;;;;;;;;5074910;28;20111;-61
2021/11/07 01:30:52;;;;;;;1.20;0.67;;;;;;;;;;5074893;28;20016;-62
2021/11/07 01:33:25;;;;;;;1.40;0.90;;;;;;;;;;5074447;28;20471;-62
2021/11/07 01:39:34;;;;;;;16.55;9.85;;;;;;;;;;5069498;28;20034;-61
2021/11/07 01:41:28;;;;;;;8.23;4.63;;;;;;;;;;5061215;28;20433;-62
2021/11/07 01:43:58;;;;;;;5.47;2.90;;;;;;;;;;5069058;28;20024;-61
2021/11/07 01:46:28;;;;;;;12.20;6.40;;;;;;;;;;5070444;28;20375;-61
2021/11/07 01:51:30;;;;;;;21.50;11.50;;;;;;;;;;5074205;28;20025;-61
2021/11/07 01:54:47;;;;;;;20.30;10.70;;;;;;;;;;5073904;28;20035;-62
2021/11/07 01:56:46;;;;;;;17.53;8.27;;;;;;;;;;5063236;28;20485;-61
2021/11/07 01:59:13;;;;;;;7.27;3.80;;;;;;;;;;5070898;28;20020;-62
2021/11/07 02:01:40;;;;;;;8.50;5.27;;;;;;;;;;5068662;28;20112;-61
2021/11/07 02:04:07;;;;;;;4.90;2.70;;;;;;;;;;5068632;28;20040;-61
2021/11/07 02:06:34;;;;;;;4.63;2.37;;;;;;;;;;5068619;28;20097;-61
2021/11/07 02:09:02;;;;;;;9.50;4.93;;;;;;;;;;5071166;28;20493;-61
2021/11/07 02:11:29;;;;;;;7.70;3.33;;;;;;;;;;5073670;28;20475;-61
2021/11/07 02:13:55;;;;;;;11.43;5.40;;;;;;;;;;5073588;28;20024;-61
2021/11/07 02:16:22;;;;;;;18.77;8.07;;;;;;;;;;5073571;28;20032;-62
2021/11/07 02:18:49;;;;;;;17.67;8.97;;;;;;;;;;5073613;28;20028;-61
2021/11/07 02:21:16;;;;;;;12.60;6.70;;;;;;;;;;5070542;28;20056;-61
2021/11/07 02:23:43;;;;;;;14.27;7.77;;;;;;;;;;5068628;28;20030;-62
2021/11/07 02:26:12;;;;;;;6.87;3.40;;;;;;;;;;5068367;28;20353;-61
2021/11/07 02:28:42;;;;;;;6.17;1.90;;;;;;;;;;5049338;28;20501;-61
2021/11/07 02:31:10;;;;;;;8.70;1.90;;;;;;;;;;5069814;28;20514;-61
2021/11/07 02:33:37;;;;;;;5.07;2.87;;;;;;;;;;5073216;28;20698;-61
2021/11/07 02:36:05;;;;;;;8.83;4.63;;;;;;;;;;5073371;28;20429;-62
2021/11/07 02:38:32;;;;;;;16.00;8.67;;;;;;;;;;5073430;28;20036;-61
2021/11/07 02:40:59;;;;;;;17.10;10.20;;;;;;;;;;5073305;28;20036;-61
2021/11/07 02:43:26;;;;;;;20.50;12.50;;;;;;;;;;5070639;28;20025;-61
2021/11/07 02:45:53;;;;;;;14.80;9.20;;;;;;;;;;5067724;28;20029;-61
2021/11/07 02:48:20;;;;;;;11.53;7.03;;;;;;;;;;5067601;28;20097;-62
2021/11/07 02:50:47;;;;;;;6.47;3.43;;;;;;;;;;5067965;28;20104;-61
2021/11/07 02:53:14;;;;;;;2.93;1.40;;;;;;;;;;5069266;28;20017;-62
2021/11/07 02:55:42;;;;;;;3.17;1.33;;;;;;;;;;5072788;28;20418;-61
2021/11/07 02:58:09;;;;;;;2.63;1.20;;;;;;;;;;5072914;28;20471;-61
2021/11/07 03:00:38;;;;;;;4.60;1.43;;;;;;;;;;5072103;28;20032;-61
2021/11/07 03:03:05;;;;;;;4.30;1.40;;;;;;;;;;5072643;28;20533;-62
2021/11/07 03:05:35;;;;;;;1.80;1.20;;;;;;;;;;5070365;28;20090;-62
2021/11/07 03:08:01;;;;;;;2.20;1.13;;;;;;;;;;5067564;28;20033;-61
2021/11/07 03:10:31;;;;;;;2.17;0.80;;;;;;;;;;5067240;28;20021;-61
2021/11/07 03:13:23;;;;;;;1.70;0.80;;;;;;;;;;5066981;28;20059;-62
2021/11/07 03:15:52;;;;;;;1.25;0.73;;;;;;;;;;5068024;28;20041;-61
2021/11/07 03:18:19;;;;;;;2.27;0.80;;;;;;;;;;5072636;28;20024;-61
2021/11/07 03:20:46;;;;;;;1.77;0.70;;;;;;;;;;5072436;28;20036;-62
2021/11/07 03:23:20;;;;;;;2.20;0.60;;;;;;;;;;5071978;28;20036;-62
2021/11/07 03:25:51;;;;;;;4.43;0.93;;;;;;;;;;5071482;28;20047;-61
2021/11/07 03:28:20;;;;;;;1.53;0.70;;;;;;;;;;5069331;28;20039;-61
2021/11/07 03:33:44;;;;;;;1.10;0.50;;;;;;;;;;5038710;28;20032;-61
2021/11/07 03:36:17;;;;;;;1.95;1.05;;;;;;;;;;5048741;28;20060;-61
2021/11/07 03:38:44;;;;;;;1.50;0.60;;;;;;;;;;5071318;28;20391;-61
2021/11/07 03:41:18;;;;;;;;;;;;;;;;;;5072072;28;20048;-61
2021/11/07 03:43:47;;;;;;;0.83;0.40;;;;;;;;;;5072046;28;19912;-63
2021/11/07 03:46:15;;;;;;;8.23;0.70;;;;;;;;;;5065760;28;20093;-61
2021/11/07 03:48:43;;;;;;;3.03;0.53;;;;;;;;;;5072387;28;20161;-61
2021/11/07 03:51:15;;;;;;;1.53;0.60;;;;;;;;;;5049812;28;20092;-61
2021/11/07 03:53:43;;;;;;;0.77;0.40;;;;;;;;;;5067385;28;20028;-62
2021/11/07 03:56:10;;;;;;;2.47;0.60;;;;;;;;;;5066629;28;20119;-61
2021/11/07 03:58:37;;;;;;;0.80;0.40;;;;;;;;;;5067374;28;20033;-61
2021/11/07 04:01:03;;;;;;;0.43;0.40;;;;;;;;;;5052367;28;20116;-61
2021/11/07 04:03:30;;;;;;;0.97;0.50;;;;;;;;;;5072191;28;20036;-61
2021/11/07 04:05:58;;;;;;;1.20;0.60;;;;;;;;;;5072466;28;20021;-61
2021/11/07 04:08:25;;;;;;;0.53;0.30;;;;;;;;;;5072246;28;20031;-61
2021/11/07 04:10:52;;;;;;;0.40;0.30;;;;;;;;;;5071694;28;20099;-61
2021/11/07 04:13:21;;;;;;;0.43;0.37;;;;;;;;;;5067289;28;20041;-61
2021/11/07 04:15:48;;;;;;;0.83;0.53;;;;;;;;;;5066832;28;20025;-61
2021/11/07 04:18:15;;;;;;;0.63;0.40;;;;;;;;;;5049442;28;20032;-62
2021/11/07 04:20:44;;;;;;;0.93;0.47;;;;;;;;;;5066336;28;20052;-61
2021/11/07 04:23:11;;;;;;;4.03;0.50;;;;;;;;;;5070765;28;20119;-62
2021/11/07 04:25:38;;;;;;;0.63;0.43;;;;;;;;;;5071800;28;20120;-62
2021/11/07 04:28:05;;;;;;;0.93;0.43;;;;;;;;;;5052056;28;20028;-61
2021/11/07 04:30:31;;;;;;;1.50;0.60;;;;;;;;;;5064982;28;20132;-61
2021/11/07 04:32:58;;;;;;;1.57;0.67;;;;;;;;;;5071966;28;20035;-61
2021/11/07 04:35:28;;;;;;;1.70;0.67;;;;;;;;;;5067775;28;20040;-62
2021/11/07 04:37:55;;;;;;;0.80;0.57;;;;;;;;;;5066898;28;20548;-61
2021/11/07 04:40:25;;;;;;;0.93;0.47;;;;;;;;;;5066386;28;20478;-61
2021/11/07 04:42:52;;;;;;;0.33;0.33;;;;;;;;;;5066602;28;20041;-61
2021/11/07 04:45:19;;;;;;;1.93;0.60;;;;;;;;;;5070158;28;20047;-61
2021/11/07 04:47:46;;;;;;;0.60;0.30;;;;;;;;;;5071831;28;20025;-61
2021/11/07 04:50:15;;;;;;;1.53;0.47;;;;;;;;;;5071329;28;20050;-61
2021/11/07 04:52:42;;;;;;;0.23;0.20;;;;;;;;;;5072955;28;20414;-61
2021/11/07 04:55:09;;;;;;;1.07;0.40;;;;;;;;;;5074524;28;20025;-62
2021/11/07 04:57:42;;;;;;;1.03;0.40;;;;;;;;;;5069926;28;20024;-62
2021/11/07 05:00:14;;;;;;;1.47;0.30;;;;;;;;;;5058247;28;20020;-61
2021/11/07 05:02:41;;;;;;;0.37;0.33;;;;;;;;;;5069072;28;20036;-61
2021/11/07 05:05:09;;;;;;;0.60;0.40;;;;;;;;;;5068713;28;20023;-62
2021/11/07 05:07:35;;;;;;;0.20;0.20;;;;;;;;;;5072339;28;20020;-61
2021/11/07 05:10:02;;;;;;;0.60;0.40;;;;;;;;;;5073486;28;20032;-61
2021/11/07 05:12:29;;;;;;;0.37;0.20;;;;;;;;;;5074082;28;20111;-61
2021/11/07 05:14:57;;;;;;;3.70;0.43;;;;;;;;;;5073796;28;20033;-61
2021/11/07 05:17:24;;;;;;;1.47;0.50;;;;;;;;;;5074214;28;20077;-61
2021/11/07 05:19:51;;;;;;;6.50;0.43;;;;;;;;;;5069456;28;20029;-61
2021/11/07 05:22:18;;;;;;;1.70;0.40;;;;;;;;;;5068730;28;20028;-61
2021/11/07 05:24:45;;;;;;;1.47;0.37;;;;;;;;;;5068490;28;20029;-61
2021/11/07 05:27:12;;;;;;;2.90;0.33;;;;;;;;;;5068498;28;20017;-61
2021/11/07 05:29:42;;;;;;;0.50;0.30;;;;;;;;;;5071776;28;20047;-61
2021/11/07 05:32:10;;;;;;;0.63;0.50;;;;;;;;;;5073879;28;20024;-61
2021/11/07 05:34:40;;;;;;;0.57;0.33;;;;;;;;;;5073483;28;20081;-61
2021/11/07 05:37:07;;;;;;;5.93;1.53;;;;;;;;;;5073734;28;20115;-61
2021/11/07 05:39:34;;;;;;;1.67;0.77;;;;;;;;;;5072738;28;20111;-61
2021/11/07 05:42:02;;;;;;;3.83;0.80;;;;;;;;;;5069701;28;20044;-61
2021/11/07 05:44:29;;;;;;;1.33;0.70;;;;;;;;;;5068706;28;20382;-61
2021/11/07 05:46:56;;;;;;;4.33;1.57;;;;;;;;;;5068413;28;20680;-61
2021/11/07 05:49:25;;;;;;;4.00;1.23;;;;;;;;;;5067997;28;20021;-62
2021/11/07 05:51:52;;;;;;;1.40;0.60;;;;;;;;;;5070588;28;20132;-62
2021/11/07 05:54:19;;;;;;;0.57;0.40;;;;;;;;;;4983843;28;2526802;-62
2021/11/07 05:56:46;;;;;;;1.07;0.40;;;;;;;;;;5073655;28;20123;-61
2021/11/07 05:59:13;;;;;;;1.33;0.70;;;;;;;;;;5074457;28;20056;-61
2021/11/07 06:01:40;;;;;;;1.10;0.60;;;;;;;;;;5074316;28;20364;-62
2021/11/07 06:04:08;;;;;;;1.63;0.87;;;;;;;;;;5070356;28;20035;-61
2021/11/07 06:06:35;;;;;;;2.23;0.90;;;;;;;;;;5069389;28;20020;-61
2021/11/07 06:09:02;;;;;;;2.40;0.90;;;;;;;;;;5068787;28;20052;-62
2021/11/07 06:11:29;;;;;;;2.30;1.00;;;;;;;;;;5068867;28;20020;-62
2021/11/07 06:13:56;;;;;;;1.60;0.80;;;;;;;;;;5071394;28;20048;-62
2021/11/07 06:16:23;;;;;;;1.93;0.80;;;;;;;;;;5074040;28;20027;-61
2021/11/07 06:18:50;;;;;;;2.50;1.00;;;;;;;;;;5073843;28;20066;-61
2021/11/07 06:21:16;;;;;;;4.63;1.13;;;;;;;;;;5073957;28;20025;-61
2021/11/07 06:23:46;;;;;;;2.80;1.00;;;;;;;;;;5073187;28;20067;-61
2021/11/07 06:26:13;;;;;;;2.27;0.90;;;;;;;;;;5069967;28;20108;-61
2021/11/07 06:28:40;;;;;;;2.13;1.10;;;;;;;;;;5068822;28;20028;-61
2021/11/07 06:31:08;;;;;;;1.30;0.70;;;;;;;;;;5068070;28;20113;-61
2021/11/07 06:33:35;;;;;;;1.37;0.90;;;;;;;;;;5068647;28;20039;-61
2021/11/07 06:36:02;;;;;;;1.37;0.70;;;;;;;;;;5071196;28;20024;-61
2021/11/07 06:38:29;;;;;;;1.93;0.87;;;;;;;;;;5073004;28;20379;-61
2021/11/07 06:40:56;;;;;;;3.37;1.00;;;;;;;;;;5073501;28;20375;-61
2021/11/07 06:43:23;;;;;;;3.70;1.03;;;;;;;;;;5073342;28;20470;-61
2021/11/07 06:45:49;;;;;;;1.07;0.70;;;;;;;;;;5073242;28;20101;-61
2021/11/07 06:48:16;;;;;;;1.50;0.60;;;;;;;;;;5069912;28;20033;-61
2021/11/07 06:50:43;;;;;;;5.63;1.00;;;;;;;;;;5068357;28;20028;-61
2021/11/07 06:53:10;;;;;;;1.47;0.73;;;;;;;;;;5068109;28;20024;-61
2021/11/07 06:55:37;;;;;;;1.83;0.77;;;;;;;;;;5067546;28;20154;-61
2021/11/07 06:58:04;;;;;;;2.10;0.87;;;;;;;;;;5070403;28;20021;-62
2021/11/07 07:00:31;;;;;;;1.10;0.63;;;;;;;;;;5072675;28;20489;-61
2021/11/07 07:02:58;;;;;;;1.50;0.70;;;;;;;;;;5072770;28;20024;-61
2021/11/07 07:05:25;;;;;;;2.90;0.53;;;;;;;;;;5072848;28;20077;-61
2021/11/07 07:07:57;;;;;;;1.30;0.80;;;;;;;;;;5072424;28;20020;-61
2021/11/07 07:10:31;;;;;;;1.83;0.90;;;;;;;;;;5069320;28;20021;-61
2021/11/07 07:13:10;;;;;;;2.00;0.50;;;;;;;;;;5067628;28;20468;-61
2021/11/07 07:15:43;;;;;;;1.87;0.77;;;;;;;;;;5067018;28;20468;-61
2021/11/07 07:21:08;;;;;;;2.35;0.60;;;;;;;;;;5071255;28;20471;-61
2021/11/07 07:28:47;;;;;;;3.20;0.70;;;;;;;;;;5072047;28;20031;-61
2021/11/07 07:31:44;;;;;;;2.47;0.90;;;;;;;;;;5071542;28;20078;-61
2021/11/07 07:34:11;;;;;;;4.03;0.80;;;;;;;;;;5067003;28;20682;-61
2021/11/07 07:36:40;;;;;;;1.03;0.60;;;;;;;;;;5067562;28;20150;-61
2021/11/07 07:39:08;;;;;;;1.67;0.70;;;;;;;;;;5066997;28;20028;-61
2021/11/07 07:41:35;;;;;;;2.53;0.80;;;;;;;;;;5068230;28;20052;-61
2021/11/07 07:44:11;;;;;;;2.13;0.80;;;;;;;;;;5072071;28;20105;-61
2021/11/07 07:46:40;;;;;;;1.60;1.00;;;;;;;;;;5071893;28;20104;-61
2021/11/07 07:49:07;;;;;;;1.37;0.73;;;;;;;;;;5071641;28;20107;-62
2021/11/07 07:51:34;;;;;;;1.90;0.93;;;;;;;;;;5052620;28;20033;-61
2021/11/07 07:54:02;;;;;;;1.17;0.50;;;;;;;;;;5066613;28;20032;-61
2021/11/07 07:56:30;;;;;;;3.97;0.97;;;;;;;;;;5066847;28;20036;-61
2021/11/07 07:58:57;;;;;;;4.37;0.67;;;;;;;;;;5066624;28;20379;-61
2021/11/07 08:01:24;;;;;;;0.83;0.53;;;;;;;;;;5066691;28;20383;-62
2021/11/07 08:03:51;;;;;;;3.03;1.00;;;;;;;;;;5068082;28;20115;-61
2021/11/07 08:06:18;;;;;;;2.77;0.60;;;;;;;;;;5072188;28;20028;-61
2021/11/07 08:08:45;;;;;;;5.07;0.87;;;;;;;;;;5072094;28;20032;-61
2021/11/07 08:11:14;;;;;;;3.80;0.83;;;;;;;;;;5072192;28;20029;-61
2021/11/07 08:13:41;;;;;;;2.10;0.77;;;;;;;;;;5071760;28;20044;-61
2021/11/07 08:16:08;;;;;;;2.10;1.20;;;;;;;;;;5070060;28;20051;-61
2021/11/07 08:18:36;;;;;;;2.07;1.00;;;;;;;;;;5066585;28;20093;-61
2021/11/07 08:21:02;;;;;;;5.37;0.67;;;;;;;;;;5067173;28;20055;-61
2021/11/07 08:23:29;;;;;;;3.17;0.90;;;;;;;;;;5066923;28;20089;-60
2021/11/07 08:25:57;;;;;;;2.83;0.63;;;;;;;;;;5067932;28;20115;-61
2021/11/07 08:28:24;;;;;;;1.73;1.17;;;;;;;;;;5073752;28;20071;-61
2021/11/07 08:30:55;;;;;;;2.77;0.93;;;;;;;;;;5075367;28;20462;-61
2021/11/07 08:33:22;;;;;;;3.03;0.60;;;;;;;;;;5076041;28;20662;-61
2021/11/07 08:35:50;;;;;;;5.43;0.70;;;;;;;;;;5076160;28;20016;-60
2021/11/07 08:38:23;;;;;;;2.30;0.83;;;;;;;;;;5073692;28;20028;-61
2021/11/07 08:40:53;;;;;;;1.73;0.90;;;;;;;;;;5070624;28;20040;-61
2021/11/07 09:00:15;;;;;;;1.67;1.00;;;;;;;;;;5075462;28;20102;-60
2021/11/07 09:00:23;;;;;;;1.55;0.60;;;;;;;;;;5074944;28;20043;-61
2021/11/07 09:06:12;;;;;;;3.80;0.95;;;;;;;;;;5070374;28;20043;-61
2021/11/07 09:08:24;;;;;;;4.30;0.60;;;;;;;;;;5069628;28;20041;-61
2021/11/07 09:10:52;;;;;;;2.70;0.50;;;;;;;;;;5072294;28;20277;-60
2021/11/07 09:13:18;;;;;;;1.47;0.70;;;;;;;;;;5074535;28;20035;-60
2021/11/07 09:15:47;;;;;;;1.20;0.70;;;;;;;;;;5074900;28;20253;-60
2021/11/07 09:18:15;;;;;;;0.70;0.50;;;;;;;;;;5074519;28;20257;-61
2021/11/07 09:23:45;;;;;;;4.33;0.63;;;;;;;;;;5072009;28;20485;-60
2021/11/07 09:32:07;;;;;;;1.23;0.80;;;;;;;;;;5069361;28;20312;-61
2021/11/07 09:34:16;;;;;;;0.63;0.43;;;;;;;;;;5068103;28;20323;-60
2021/11/07 09:36:51;;;;;;;1.50;0.57;;;;;;;;;;5074722;28;20767;-61
2021/11/07 09:39:22;;;;;;;1.40;0.52;;;;;;;;;;5073828;28;20271;-61
2021/11/07 09:42:02;;;;;;;2.20;0.50;;;;;;;;;;5074534;28;20418;-61
2021/11/07 09:44:35;;;;;;;1.03;0.50;;;;;;;;;;5073040;28;20763;-61
2021/11/07 09:47:05;;;;;;;2.57;0.47;;;;;;;;;;5069598;28;20261;-61
2021/11/07 09:49:34;;;;;;;1.07;0.50;;;;;;;;;;5069110;28;20277;-60
2021/11/07 09:52:18;;;;;;;0.50;0.33;;;;;;;;;;5069613;28;20254;-61
2021/11/07 09:54:51;;;;;;;1.30;0.40;;;;;;;;;;5069887;28;20811;-60
2021/11/07 09:57:22;;;;;;;4.07;0.70;;;;;;;;;;5074063;28;20322;-61
2021/11/07 09:59:54;;;;;;;1.17;0.70;;;;;;;;;;5073390;28;20265;-60
2021/11/07 10:02:21;;;;;;;1.90;0.43;;;;;;;;;;5074165;28;20296;-60
2021/11/07 10:04:49;;;;;;;0.60;0.43;;;;;;;;;;5074250;28;20605;-60
2021/11/07 10:07:17;;;;;;;2.67;0.60;;;;;;;;;;5071617;28;20283;-61
2021/11/07 10:09:47;;;;;;;1.17;0.47;;;;;;;;;;5068889;28;20821;-60
2021/11/07 10:12:18;;;;;;;1.20;0.70;;;;;;;;;;5068633;28;20258;-61
2021/11/07 10:14:50;;;;;;;1.23;0.50;;;;;;;;;;5068924;28;20254;-60
2021/11/07 10:17:36;;;;;;;1.53;0.50;;;;;;;;;;5071056;28;20671;-60
2021/11/07 10:20:07;;;;;;;;;;;;;;;;;;5054709;28;20391;-61
2021/11/07 10:22:35;;;;;;;0.47;0.33;;;;;;;;;;5057765;28;19916;-60
2021/11/07 10:25:02;;;;;;;4.50;0.80;;;;;;;;;;5073825;28;20736;-60
2021/11/07 10:27:36;;;;;;;1.30;0.50;;;;;;;;;;5073901;28;20254;-60
2021/11/07 10:30:15;;;;;;;1.00;0.55;;;;;;;;;;5062599;28;20308;-61
2021/11/07 10:32:55;;;;;;;1.17;0.60;;;;;;;;;;5068427;28;20033;-60
2021/11/07 10:38:11;;;;;;;1.50;0.47;;;;;;;;;;5067774;28;20284;-60
2021/11/07 10:41:04;;;;;;;1.27;0.52;;;;;;;;;;5072491;28;20415;-60
2021/11/07 10:46:17;;;;;;;0.73;0.40;;;;;;;;;;5073257;28;20289;-60
2021/11/07 10:54:24;;;;;;;2.03;0.50;;;;;;;;;;5067977;28;20044;-61
2021/11/07 10:57:11;;;;;;;0.80;0.40;;;;;;;;;;5067826;28;20441;-60
2021/11/07 10:59:37;;;;;;;3.10;0.40;;;;;;;;;;5067644;28;20261;-60
2021/11/07 11:02:24;;;;;;;1.17;0.50;;;;;;;;;;5070772;28;20331;-60
2021/11/07 11:05:08;;;;;;;0.53;0.40;;;;;;;;;;5073047;28;20261;-60
2021/11/07 11:07:48;;;;;;;0.97;0.50;;;;;;;;;;5072683;28;20272;-60
2021/11/07 11:10:21;;;;;;;0.73;0.43;;;;;;;;;;5066149;28;20399;-60
2021/11/07 11:13:10;;;;;;;0.77;0.30;;;;;;;;;;5072446;28;20266;-60
2021/11/07 11:15:46;;;;;;;1.40;0.40;;;;;;;;;;5067933;28;20254;-61
2021/11/07 11:18:43;;;;;;;0.63;0.47;;;;;;;;;;5067298;28;20716;-60
2021/11/07 11:24:00;;;;;;;0.70;0.40;;;;;;;;;;5069102;28;20269;-60
2021/11/07 11:29:21;;;;;;;1.33;0.60;;;;;;;;;;5072584;28;20315;-60
2021/11/07 11:34:23;;;;;;;0.30;0.30;;;;;;;;;;5072701;28;20265;-60
2021/11/07 11:37:12;;;;;;;0.43;0.30;;;;;;;;;;5068014;28;20314;-60
2021/11/07 11:39:56;;;;;;;0.57;0.40;;;;;;;;;;5066862;28;20628;-60
2021/11/07 11:42:28;;;;;;;4.07;0.60;;;;;;;;;;5067080;28;20320;-60
2021/11/07 11:44:57;;;;;;;0.77;0.57;;;;;;;;;;5067830;28;20012;-60
2021/11/07 11:47:41;;;;;;;0.50;0.47;;;;;;;;;;5072290;28;20653;-60
2021/11/07 11:50:23;;;;;;;0.87;0.30;;;;;;;;;;5072148;28;20292;-60
2021/11/07 11:53:03;;;;;;;0.50;0.40;;;;;;;;;;5071711;28;20274;-60
2021/11/07 11:58:25;;;;;;;1.00;0.35;;;;;;;;;;5069411;28;20632;-60
2021/11/07 12:01:10;;;;;;;2.50;0.60;;;;;;;;;;5066643;28;20522;-61
2021/11/07 12:06:42;;;;;;;1.43;0.50;;;;;;;;;;5066927;28;20036;-61
2021/11/07 12:09:25;;;;;;;0.63;0.57;;;;;;;;;;5071156;28;20340;-60
2021/11/07 12:11:57;;;;;;;1.10;0.77;;;;;;;;;;5071640;28;20288;-60
2021/11/07 12:16:57;;;;;;;2.47;0.70;;;;;;;;;;5072178;28;20323;-61
2021/11/07 12:19:31;;;;;;;0.50;0.40;;;;;;;;;;5071253;28;20755;-60
2021/11/07 12:22:05;;;;;;;2.60;0.50;;;;;;;;;;5067023;28;20342;-60
2021/11/07 12:24:34;;;;;;;0.68;0.40;;;;;;;;;;5067053;28;20358;-60
2021/11/07 12:27:26;;;;;;;2.87;0.40;;;;;;;;;;5066997;28;20364;-60
2021/11/07 12:29:54;;;;;;;2.47;0.50;;;;;;;;;;5022801;28;20297;-60
2021/11/07 12:32:24;;;;;;;1.00;0.50;;;;;;;;;;5071463;28;20293;-60
2021/11/07 12:35:18;;;;;;;0.83;0.30;;;;;;;;;;5072254;28;20352;-60
2021/11/07 12:40:51;;;;;;;0.37;0.37;;;;;;;;;;5071825;28;20276;-60
2021/11/07 12:43:24;;;;;;;2.73;0.60;;;;;;;;;;5067837;28;20273;-60
2021/11/07 12:45:55;;;;;;;0.87;0.50;;;;;;;;;;5066425;28;20319;-60
2021/11/07 12:48:37;;;;;;;3.00;0.60;;;;;;;;;;5066516;28;20271;-60
2021/11/07 12:51:05;;;;;;;1.97;0.80;;;;;;;;;;5066627;28;20269;-60
2021/11/07 12:53:52;;;;;;;1.50;0.70;;;;;;;;;;5071055;28;20323;-60
2021/11/07 12:56:30;;;;;;;1.67;0.77;;;;;;;;;;5071561;28;20285;-61
2021/11/07 12:58:58;;;;;;;1.30;0.80;;;;;;;;;;5071806;28;20261;-60
2021/11/07 13:01:26;;;;;;;2.50;1.20;;;;;;;;;;5070917;28;20321;-61
2021/11/07 13:03:54;;;;;;;0.73;0.43;;;;;;;;;;5070270;28;20268;-60
2021/11/07 13:06:21;;;;;;;0.67;0.50;;;;;;;;;;5066456;28;20265;-60
2021/11/07 13:08:55;;;;;;;3.57;0.80;;;;;;;;;;5066704;28;20258;-60
2021/11/07 13:11:26;;;;;;;1.87;0.80;;;;;;;;;;5046589;28;20273;-60
2021/11/07 13:14:03;;;;;;;3.37;0.77;;;;;;;;;;5063453;28;20367;-60
2021/11/07 13:20:10;;;;;;;1.60;0.67;;;;;;;;;;5074491;28;20265;-62
2021/11/07 13:22:36;;;;;;;2.15;0.70;;;;;;;;;;5065596;28;20443;-60
2021/11/07 13:27:45;;;;;;;1.80;0.90;;;;;;;;;;5070793;28;20307;-61
2021/11/07 13:30:18;;;;;;;1.00;0.67;;;;;;;;;;5069540;28;20284;-61
2021/11/07 13:32:47;;;;;;;1.70;0.80;;;;;;;;;;5069237;28;20644;-61
2021/11/07 13:35:17;;;;;;;1.60;0.73;;;;;;;;;;5069170;28;20276;-61
2021/11/07 13:37:47;;;;;;;1.20;0.80;;;;;;;;;;5074273;28;20674;-60
2021/11/07 13:40:23;;;;;;;3.90;1.10;;;;;;;;;;5074188;28;20353;-61
2021/11/07 13:42:50;;;;;;;1.83;1.03;;;;;;;;;;5074581;28;20291;-60
2021/11/07 13:45:26;;;;;;;2.07;1.00;;;;;;;;;;5074635;28;20618;-61
2021/11/07 13:47:54;;;;;;;2.60;1.10;;;;;;;;;;5074054;28;20274;-60
2021/11/07 13:50:23;;;;;;;3.70;1.17;;;;;;;;;;5068502;28;20691;-61
2021/11/07 13:52:53;;;;;;;2.63;1.00;;;;;;;;;;5069378;28;20997;-60
2021/11/07 13:55:25;;;;;;;1.67;1.10;;;;;;;;;;5069085;28;20354;-61
2021/11/07 13:57:52;;;;;;;1.60;0.80;;;;;;;;;;5069207;28;20043;-61
2021/11/07 14:00:21;;;;;;;2.63;0.90;;;;;;;;;;5074220;28;20034;-62
2021/11/07 14:02:49;;;;;;;1.00;0.63;;;;;;;;;;5073428;28;20032;-61
2021/11/07 14:05:16;;;;;;;2.30;0.90;;;;;;;;;;5074176;28;20031;-61
2021/11/07 14:07:55;;;;;;;1.00;0.57;;;;;;;;;;5074416;28;20033;-61
2021/11/07 14:10:24;;;;;;;1.70;0.80;;;;;;;;;;5072819;28;20111;-61
2021/11/07 14:12:56;;;;;;;1.53;0.90;;;;;;;;;;5068989;28;20024;-61
2021/11/07 14:15:32;;;;;;;0.83;0.57;;;;;;;;;;5068791;28;20395;-62
2021/11/07 14:18:17;;;;;;;0.77;0.53;;;;;;;;;;5068991;28;20495;-61
2021/11/07 14:20:51;;;;;;;2.10;0.77;;;;;;;;;;5070459;28;20424;-61
2021/11/07 14:23:22;;;;;;;1.38;0.75;;;;;;;;;;5061327;28;20040;-61
2021/11/07 14:26:04;;;;;;;3.13;0.60;;;;;;;;;;5073899;28;20107;-61
2021/11/07 14:28:39;;;;;;;1.07;0.60;;;;;;;;;;5073556;28;20033;-61
2021/11/07 14:31:17;;;;;;;1.13;0.50;;;;;;;;;;5053437;28;20040;-61
2021/11/07 14:33:49;;;;;;;0.60;0.30;;;;;;;;;;5063398;28;20024;-61
2021/11/07 14:36:30;;;;;;;2.97;0.67;;;;;;;;;;5068716;28;20032;-62
2021/11/07 14:39:10;;;;;;;1.13;0.70;;;;;;;;;;5067802;28;20036;-62
2021/11/07 14:41:45;;;;;;;2.20;0.60;;;;;;;;;;5068425;28;20051;-61
2021/11/07 14:44:28;;;;;;;1.80;0.67;;;;;;;;;;5072385;28;20032;-61
2021/11/07 14:47:30;;;;;;;1.60;0.60;;;;;;;;;;5073354;28;20037;-62
2021/11/07 14:52:58;;;;;;;1.47;0.50;;;;;;;;;;5072875;28;20479;-61
2021/11/07 14:58:23;;;;;;;0.83;0.60;;;;;;;;;;5068093;28;20085;-61
2021/11/07 15:01:00;;;;;;;1.17;0.50;;;;;;;;;;5067886;28;20037;-62
2021/11/07 15:03:33;;;;;;;1.90;0.90;;;;;;;;;;5067425;28;20024;-62
2021/11/07 15:06:30;;;;;;;1.10;0.47;;;;;;;;;;5071478;28;20028;-62
2021/11/07 15:09:07;;;;;;;1.50;0.70;;;;;;;;;;5072747;28;20036;-62
2021/11/07 15:11:43;;;;;;;0.77;0.50;;;;;;;;;;5072627;28;20472;-62
2021/11/07 15:14:28;;;;;;;1.37;0.60;;;;;;;;;;5072334;28;20043;-62
2021/11/07 15:17:06;;;;;;;1.63;0.60;;;;;;;;;;5071275;28;20063;-62
2021/11/07 15:20:06;;;;;;;1.33;0.77;;;;;;;;;;5067480;28;20269;-62
2021/11/07 15:22:45;;;;;;;1.10;0.43;;;;;;;;;;5064387;28;20114;-62
2021/11/07 15:25:12;;;;;;;1.27;0.50;;;;;;;;;;5067516;28;20101;-62
2021/11/07 15:27:39;;;;;;;1.50;0.60;;;;;;;;;;5069578;28;20057;-63
2021/11/07 15:30:15;;;;;;;4.57;0.77;;;;;;;;;;5072510;28;20416;-62
2021/11/07 15:32:42;;;;;;;1.67;0.70;;;;;;;;;;5071678;28;20054;-62
2021/11/07 15:35:25;;;;;;;0.50;0.30;;;;;;;;;;5072572;28;20035;-62
2021/11/07 15:37:53;;;;;;;0.33;0.33;;;;;;;;;;5071762;28;20025;-62
2021/11/07 15:40:31;;;;;;;0.63;0.43;;;;;;;;;;5067894;28;20051;-62
2021/11/07 15:42:58;;;;;;;3.23;0.50;;;;;;;;;;5067394;28;20458;-62
2021/11/07 15:45:26;;;;;;;0.87;0.60;;;;;;;;;;5067325;28;20036;-62
2021/11/07 15:47:56;;;;;;;0.80;0.50;;;;;;;;;;5066884;28;20115;-62
2021/11/07 15:53:19;;;;;;;1.65;0.50;;;;;;;;;;5072413;28;20154;-62
2021/11/07 15:55:58;;;;;;;4.23;0.60;;;;;;;;;;5072235;28;20036;-63
2021/11/07 16:03:45;;;;;;;;;;;;;;;;;;5067515;28;20051;-64
2021/11/07 16:06:41;;;;;;;1.08;0.50;;;;;;;;;;5047157;28;20354;-62
2021/11/07 16:09:15;;;;;;;0.80;0.50;;;;;;;;;;5047901;28;20542;-62
2021/11/07 16:16:58;;;;;;;0.70;0.40;;;;;;;;;;5072193;28;20102;-63
2021/11/07 16:19:28;;;;;;;0.57;0.23;;;;;;;;;;5071302;28;20024;-62
2021/11/07 16:22:02;;;;;;;1.40;0.47;;;;;;;;;;5066368;28;20060;-67
2021/11/07 16:24:32;;;;;;;3.33;0.70;;;;;;;;;;5067317;28;20029;-66
2021/11/07 16:27:05;;;;;;;0.97;0.33;;;;;;;;;;5066303;28;20033;-66
2021/11/07 16:29:33;;;;;;;1.30;0.40;;;;;;;;;;5046872;28;20052;-65
2021/11/07 16:34:30;;;;;;;1.80;0.40;;;;;;;;;;5069616;28;20029;-65
2021/11/07 16:36:59;;;;;;;0.40;0.10;;;;;;;;;;5053368;28;20040;-66
2021/11/07 16:42:20;;;;;;;0.23;0.20;;;;;;;;;;5054845;28;20400;-66
2021/11/07 16:45:01;;;;;;;0.30;0.10;;;;;;;;;;5071536;28;20028;-65
2021/11/07 16:47:33;;;;;;;0.40;0.20;;;;;;;;;;5048069;28;20029;-68
2021/11/07 16:50:03;;;;;;;1.17;0.40;;;;;;;;;;5069504;28;20099;-67
2021/11/07 16:52:35;;;;;;;0.30;0.10;;;;;;;;;;5052208;28;20041;-66
2021/11/07 16:55:11;;;;;;;0.37;0.20;;;;;;;;;;5070424;28;20107;-67
2021/11/07 16:57:50;;;;;;;1.92;0.20;;;;;;;;;;5071161;28;20028;-67
2021/11/07 17:00:20;;;;;;;0.20;0.13;;;;;;;;;;5074714;28;20639;-66
2021/11/07 17:02:55;;;;;;;0.47;0.13;;;;;;;;;;5074395;28;20474;-67
2021/11/07 17:05:26;;;;;;;0.82;0.30;;;;;;;;;;5075039;28;20074;-69
2021/11/07 17:08:01;;;;;;;0.43;0.20;;;;;;;;;;5073669;28;20013;-69
2021/11/07 17:10:29;;;;;;;0.55;0.17;;;;;;;;;;5070076;28;20043;-66